Time;durP1;ratioP1;P1;durP2;ratioP2;P2;SDS_P1;SDS_P2;PMS_P1;PMS_P2;Temp;Humidity;BMP_temperature;BMP_pressure;BME280_temperature;BME280_humidity;BME280_pressure;Samples;Min_cycle;Max_cycle;Signal;HPM_P1;HPM_P2
2023/04/18 00:01:56;;;;;;;14.47;12.47;;;7.80;99.90;;;-141.84;86.08;19151.34;5053829;28;20210;-66
2023/04/18 00:04:24;;;;;;;15.70;12.73;;;7.80;99.90;;;-141.84;86.35;19139.16;5053858;28;20726;-67
2023/04/18 00:06:53;;;;;;;15.60;12.50;;;7.80;99.90;;;-141.84;86.94;19141.19;5053794;28;20197;-67
2023/04/18 00:09:21;;;;;;;14.40;11.77;;;7.70;99.90;;;-141.84;87.17;19151.34;5053749;28;20288;-67
2023/04/18 00:11:49;;;;;;;14.50;12.23;;;7.70;99.90;;;-141.84;86.34;19171.66;5053731;28;20201;-67
2023/04/18 00:14:19;;;;;;;13.13;11.53;;;7.80;99.90;;;-141.84;86.30;19151.34;5053327;28;20601;-68
2023/04/18 00:16:47;;;;;;;13.73;11.57;;;7.70;99.90;;;-141.84;87.17;19137.13;5053558;28;20205;-67
2023/04/18 00:19:17;;;;;;;13.70;10.97;;;7.70;99.90;;;-141.84;88.13;19159.47;5053604;28;20255;-67
2023/04/18 00:21:45;;;;;;;13.73;11.57;;;7.70;99.90;;;-141.84;88.32;19122.91;5042477;28;20609;-68
2023/04/18 00:24:14;;;;;;;13.33;11.47;;;7.70;99.90;;;-141.84;88.20;19137.13;5033563;28;20206;-67
2023/04/18 00:26:42;;;;;;;13.97;12.20;;;7.70;99.90;;;-141.84;88.54;19118.84;5033469;28;20271;-68
2023/04/18 00:29:10;;;;;;;13.70;11.77;;;7.70;99.90;;;-141.84;88.37;19086.31;5039077;28;20220;-67
2023/04/18 00:31:40;;;;;;;14.13;11.80;;;7.60;99.90;;;-141.84;88.33;19086.31;5053079;28;20198;-67
2023/04/18 00:34:08;;;;;;;13.87;12.40;;;7.70;99.90;;;-141.84;87.73;19129.00;5053174;28;20201;-68
2023/04/18 00:36:36;;;;;;;13.73;11.60;;;7.70;99.90;;;-141.84;87.64;19118.84;5053143;28;20221;-67
2023/04/18 00:39:05;;;;;;;13.37;11.87;;;7.70;99.90;;;-141.84;88.13;19159.47;5053448;28;20562;-67
2023/04/18 00:41:33;;;;;;;14.27;11.77;;;7.80;99.90;;;-141.84;88.72;19102.56;5053057;28;20281;-67
2023/04/18 00:44:01;;;;;;;14.87;12.57;;;7.60;99.90;;;-141.84;89.01;19088.34;5052457;28;20240;-67
2023/04/18 00:46:29;;;;;;;15.10;12.47;;;7.60;99.90;;;-141.84;88.88;19114.78;5052924;28;20691;-67
2023/04/18 00:48:59;;;;;;;17.80;12.67;;;7.60;99.90;;;-141.84;88.63;19139.16;5046240;28;20635;-67
2023/04/18 00:51:28;;;;;;;16.10;12.50;;;7.70;99.90;;;-141.84;88.26;19104.59;5032981;28;20206;-67
2023/04/18 00:53:56;;;;;;;15.97;12.10;;;7.70;99.90;;;-141.84;88.65;19124.94;5033199;28;20206;-66
2023/04/18 00:56:25;;;;;;;17.93;13.07;;;7.80;99.90;;;-141.84;88.99;19108.69;5032521;28;20208;-67
2023/04/18 00:58:54;;;;;;;17.40;13.60;;;7.70;99.90;;;-141.84;88.18;19116.81;5036282;28;20292;-67
2023/04/18 01:01:22;;;;;;;18.73;13.73;;;7.80;99.90;;;-141.84;88.50;19122.91;5052202;28;20661;-68
2023/04/18 01:03:50;;;;;;;18.77;13.77;;;7.70;99.90;;;-141.84;88.90;19114.78;5052603;28;20209;-67
2023/04/18 01:06:22;;;;;;;22.60;15.60;;;7.80;99.90;;;-141.84;88.69;19106.66;5052854;28;20205;-68
2023/04/18 01:08:50;;;;;;;21.37;15.53;;;7.80;99.90;;;-141.84;89.46;19108.69;5052639;28;20281;-67
2023/04/18 01:11:18;;;;;;;21.80;15.60;;;7.70;99.90;;;-141.84;89.77;19129.00;5052638;28;20209;-68
2023/04/18 01:13:59;;;;;;;23.90;16.23;;;7.80;99.90;;;-141.84;90.01;19086.31;5052477;28;20223;-68
2023/04/18 01:16:31;;;;;;;22.30;15.70;;;7.80;99.90;;;-141.84;90.21;19102.56;5052498;28;20532;-68
2023/04/18 01:19:00;;;;;;;27.53;17.73;;;7.80;99.90;;;-141.84;89.93;19086.31;5052173;28;20205;-66
2023/04/18 01:21:30;;;;;;;24.03;17.30;;;7.70;99.90;;;-141.84;90.25;19106.66;5043618;28;20194;-66
2023/04/18 01:24:11;;;;;;;25.27;17.90;;;7.80;99.90;;;-141.84;89.17;19098.50;5032612;28;20202;-68
2023/04/18 01:26:40;;;;;;;23.73;17.63;;;7.80;99.90;;;-141.84;89.39;19098.50;5032232;28;20198;-68
2023/04/18 01:29:08;;;;;;;26.80;17.83;;;7.80;99.90;;;-141.84;89.66;19129.00;5037643;28;20201;-67
2023/04/18 01:31:38;;;;;;;23.40;17.03;;;7.80;99.90;;;-141.84;88.91;19092.41;5052233;28;20201;-67
2023/04/18 01:34:08;;;;;;;25.00;18.40;;;7.90;99.90;;;-141.84;88.75;19102.56;5052250;28;20493;-68
2023/04/18 01:36:38;;;;;;;24.00;18.07;;;7.90;99.90;;;-141.84;88.20;19126.97;5051784;28;20649;-67
2023/04/18 01:39:06;;;;;;;23.73;17.30;;;7.90;99.90;;;-141.84;88.72;19090.38;5052332;28;20202;-67
2023/04/18 01:41:36;;;;;;;23.83;17.13;;;7.90;99.90;;;-141.84;89.16;19116.81;5052034;28;20211;-68
2023/04/18 01:44:05;;;;;;;25.63;18.40;;;7.90;99.90;;;-141.84;88.32;19131.03;5051464;28;20229;-67
2023/04/18 01:46:33;;;;;;;24.53;18.43;;;8.00;99.90;;;-141.84;88.12;19112.75;5051885;28;20201;-67
2023/04/18 01:49:01;;;;;;;23.37;17.83;;;8.00;99.90;;;-141.84;88.01;19108.69;5044818;28;20723;-67
2023/04/18 01:51:30;;;;;;;22.97;18.60;;;8.00;99.90;;;-141.84;87.71;19118.84;5031880;28;20202;-67
2023/04/18 01:53:58;;;;;;;24.10;18.17;;;8.00;99.90;;;-141.84;88.02;19114.78;5031976;28;20293;-69
2023/04/18 01:56:26;;;;;;;22.90;17.00;;;8.00;99.90;;;-141.84;88.47;19090.38;5031651;28;20202;-67
2023/04/18 01:58:56;;;;;;;27.50;17.93;;;8.00;99.90;;;-141.84;88.04;19100.53;5035430;28;20221;-66
2023/04/18 02:01:24;;;;;;;23.43;17.77;;;8.00;99.90;;;-141.84;87.64;19135.09;5051366;28;20695;-68
2023/04/18 02:03:52;;;;;;;20.87;17.43;;;8.00;99.90;;;-141.84;87.69;19114.78;5051654;28;20566;-68
2023/04/18 02:06:21;;;;;;;23.20;17.73;;;8.00;99.90;;;-141.84;87.99;19100.53;5051963;28;20205;-67
2023/04/18 02:08:49;;;;;;;23.27;17.97;;;8.00;99.90;;;-141.84;87.88;19126.97;5050847;28;20209;-68
2023/04/18 02:11:17;;;;;;;22.27;18.30;;;8.00;99.90;;;-141.84;87.72;19149.31;5051371;28;20209;-68
2023/04/18 02:13:45;;;;;;;22.07;16.77;;;8.00;99.90;;;-141.84;87.55;19084.28;5051527;28;20225;-66
2023/04/18 02:16:15;;;;;;;20.10;16.70;;;8.00;99.90;;;-141.84;87.26;19100.53;5051359;28;20206;-68
2023/04/18 02:18:44;;;;;;;19.93;16.87;;;8.00;99.90;;;-141.84;87.10;19114.78;5051562;28;20228;-67
2023/04/18 02:21:12;;;;;;;21.77;17.33;;;8.10;99.90;;;-141.84;86.92;19165.56;5044933;28;20260;-67
2023/04/18 02:23:40;;;;;;;21.50;17.67;;;8.10;99.90;;;-141.84;85.75;19110.72;5031779;28;20198;-67
2023/04/18 02:26:08;;;;;;;21.73;17.47;;;8.20;99.90;;;-141.84;85.61;19137.13;5031433;28;20209;-67
2023/04/18 02:28:37;;;;;;;23.37;18.97;;;8.10;99.90;;;-141.84;85.47;19124.94;5032392;28;20205;-67
2023/04/18 02:31:06;;;;;;;20.83;18.00;;;8.10;99.90;;;-141.84;85.55;19118.84;5051734;28;20208;-67
2023/04/18 02:33:36;;;;;;;24.93;18.67;;;8.10;99.90;;;-141.84;85.95;19114.78;5051929;28;20209;-67
2023/04/18 02:36:05;;;;;;;23.20;18.23;;;8.10;99.90;;;-141.84;85.28;19141.19;5052228;28;20209;-67
2023/04/18 02:38:33;;;;;;;23.60;19.10;;;8.10;99.90;;;-141.84;85.70;19141.19;5051241;28;20723;-58
2023/04/18 02:41:02;;;;;;;21.60;18.20;;;8.10;99.90;;;-141.84;85.67;19139.16;5051049;28;20681;-57
2023/04/18 02:43:30;;;;;;;22.00;18.80;;;8.10;99.90;;;-141.84;85.60;19153.38;5050856;28;20229;-57
2023/04/18 02:45:58;;;;;;;20.90;18.37;;;8.20;99.90;;;-141.84;84.64;19139.16;5051441;28;20205;-58
2023/04/18 02:48:26;;;;;;;19.83;17.73;;;8.10;99.90;;;-141.84;84.60;19114.78;5049213;28;20194;-57
2023/04/18 02:51:03;;;;;;;21.40;18.17;;;8.10;99.90;;;-141.84;84.60;19135.09;5031319;28;20202;-59
2023/04/18 02:53:31;;;;;;;20.63;18.43;;;8.10;99.90;;;-141.84;84.27;19126.97;5031545;28;20222;-58
2023/04/18 02:56:00;;;;;;;22.57;18.80;;;8.20;99.90;;;-141.84;84.62;19114.78;5031497;28;20701;-58
2023/04/18 02:58:28;;;;;;;22.07;18.73;;;8.10;99.90;;;-141.84;84.78;19118.84;5031187;28;20226;-58
2023/04/18 03:00:58;;;;;;;20.77;17.70;;;8.10;99.90;;;-141.84;84.16;19165.56;5051078;28;20208;-59
2023/04/18 03:03:26;;;;;;;20.83;17.83;;;8.10;99.90;;;-141.84;84.33;19129.00;5051390;28;20263;-58
2023/04/18 03:05:56;;;;;;;23.17;18.23;;;8.00;99.90;;;-141.84;84.21;19118.84;5051079;28;20205;-59
2023/04/18 03:08:24;;;;;;;19.97;17.60;;;8.00;99.90;;;-141.84;83.94;19122.91;5051084;28;20202;-59
2023/04/18 03:10:54;;;;;;;21.60;18.13;;;8.10;99.90;;;-141.84;84.22;19122.91;5051054;28;20197;-59
2023/04/18 03:13:23;;;;;;;20.50;17.53;;;8.00;99.90;;;-141.84;83.47;19094.44;5050980;28;20209;-59
2023/04/18 03:15:52;;;;;;;19.43;16.80;;;8.10;99.90;;;-141.84;83.54;19114.78;5050960;28;20217;-59
2023/04/18 03:18:20;;;;;;;20.87;17.27;;;8.00;99.90;;;-141.84;84.50;19122.91;5050996;28;20302;-59
2023/04/18 03:20:48;;;;;;;20.23;17.60;;;8.00;99.90;;;-141.84;83.89;19153.38;5048515;28;20202;-58
2023/04/18 03:23:18;;;;;;;20.10;17.50;;;8.00;99.90;;;-141.84;83.26;19167.59;5034220;28;20221;-59
2023/04/18 03:25:46;;;;;;;22.33;17.83;;;8.00;99.90;;;-141.84;82.54;19159.47;5034264;28;20209;-59
2023/04/18 03:28:14;;;;;;;20.03;17.47;;;8.10;99.90;;;-141.84;82.85;19147.28;5034355;28;20194;-58
2023/04/18 03:30:42;;;;;;;20.73;17.47;;;8.10;99.90;;;-141.84;83.12;19112.75;5052995;28;20583;-56
2023/04/18 03:33:12;;;;;;;19.53;17.37;;;8.10;99.90;;;-141.84;82.72;19151.34;5054476;28;20201;-57
2023/04/18 03:35:40;;;;;;;20.63;17.10;;;8.00;99.90;;;-141.84;83.29;19165.56;5054432;28;20198;-58
2023/04/18 03:38:08;;;;;;;20.30;17.60;;;8.00;99.90;;;-141.84;82.61;19165.56;5054226;28;20210;-59
2023/04/18 03:40:37;;;;;;;18.83;16.70;;;8.00;99.90;;;-141.84;82.37;19139.16;5054642;28;20209;-58
2023/04/18 03:43:06;;;;;;;18.97;16.03;;;8.10;99.90;;;-141.84;82.65;19161.50;5053796;28;20237;-59
2023/04/18 03:45:34;;;;;;;18.33;16.33;;;8.10;99.90;;;-141.84;82.88;19131.03;5054128;28;20197;-57
2023/04/18 03:48:02;;;;;;;17.97;16.03;;;8.00;99.90;;;-141.84;83.40;19124.94;5053852;28;20646;-60
2023/04/18 03:50:31;;;;;;;17.57;15.77;;;7.90;99.90;;;-141.84;82.42;19149.31;5034924;28;20289;-58
2023/04/18 03:52:59;;;;;;;18.20;15.37;;;8.00;99.90;;;-141.84;82.73;19155.41;5034130;28;20213;-58
2023/04/18 03:55:28;;;;;;;17.97;15.77;;;8.00;99.90;;;-141.84;82.63;19141.19;5033789;28;20213;-58
2023/04/18 03:57:58;;;;;;;16.77;15.03;;;7.90;99.90;;;-141.84;83.04;19122.91;5033573;28;20792;-57
2023/04/18 04:00:26;;;;;;;16.40;14.70;;;7.90;99.90;;;-141.84;82.55;19131.03;5050003;28;20232;-59
2023/04/18 04:02:54;;;;;;;16.67;14.77;;;7.90;99.90;;;-141.84;82.39;19110.72;5053893;28;20205;-57
2023/04/18 04:05:23;;;;;;;16.93;15.13;;;7.80;99.90;;;-141.84;82.42;19129.00;5053498;28;20748;-59
2023/04/18 04:07:51;;;;;;;17.23;15.27;;;7.80;99.90;;;-141.84;82.18;19161.50;5053742;28;20208;-59
2023/04/18 04:10:19;;;;;;;16.73;14.93;;;7.80;99.90;;;-141.84;82.46;19118.84;5053839;28;20198;-58
2023/04/18 04:12:47;;;;;;;17.17;14.67;;;7.80;99.90;;;-141.84;82.94;19122.91;5053329;28;20768;-59
2023/04/18 04:15:17;;;;;;;15.93;14.17;;;7.70;99.90;;;-141.84;82.07;19135.09;5053497;28;20217;-60
2023/04/18 04:17:45;;;;;;;17.10;15.00;;;7.80;99.90;;;-141.84;82.11;19126.97;5053569;28;20201;-58
2023/04/18 04:20:14;;;;;;;16.30;14.53;;;7.70;99.90;;;-141.84;82.14;19149.31;5053140;28;20217;-58
2023/04/18 04:22:42;;;;;;;18.87;14.57;;;7.70;99.90;;;-141.84;81.50;19122.91;5034308;28;20218;-60
2023/04/18 04:25:12;;;;;;;18.73;16.40;;;7.70;99.90;;;-141.84;81.70;19120.88;5033654;28;20516;-57
2023/04/18 04:27:41;;;;;;;17.50;14.93;;;7.70;99.90;;;-141.84;81.54;19137.13;5033172;28;20187;-60
2023/04/18 04:30:10;;;;;;;17.20;14.80;;;7.70;99.90;;;-141.84;81.71;19126.97;5047350;28;20205;-59
2023/04/18 04:32:43;;;;;;;16.37;14.23;;;7.70;99.90;;;-141.84;80.95;19157.44;5052714;28;20192;-57
2023/04/18 04:35:11;;;;;;;14.73;13.23;;;7.80;99.90;;;-141.84;80.93;19143.22;5053329;28;20228;-57
2023/04/18 04:37:40;;;;;;;17.47;13.70;;;7.80;99.90;;;-141.84;81.79;19143.22;5053522;28;20206;-58
2023/04/18 04:40:10;;;;;;;15.17;13.13;;;7.70;99.90;;;-141.84;81.31;19133.06;5053243;28;20226;-57
2023/04/18 04:42:39;;;;;;;15.73;13.70;;;7.70;99.90;;;-141.84;81.52;19157.44;5052656;28;20193;-59
2023/04/18 04:45:09;;;;;;;15.77;13.40;;;7.70;99.90;;;-141.84;82.05;19139.16;5052933;28;20186;-59
2023/04/18 04:47:37;;;;;;;16.67;13.37;;;7.70;99.90;;;-141.84;80.69;19137.13;5052990;28;20661;-59
2023/04/18 04:50:13;;;;;;;15.90;14.30;;;7.80;99.90;;;-141.84;80.71;19139.16;5039853;28;20198;-58
2023/04/18 04:52:41;;;;;;;16.53;13.70;;;7.80;99.90;;;-141.84;80.59;19163.53;5034520;28;20188;-59
2023/04/18 04:55:10;;;;;;;14.60;13.10;;;7.90;99.90;;;-141.84;80.31;19143.22;5032845;28;20286;-58
2023/04/18 04:57:38;;;;;;;15.20;12.80;;;7.70;99.90;;;-141.84;80.05;19108.69;5032357;28;20233;-59
2023/04/18 05:00:08;;;;;;;15.17;12.43;;;7.70;99.90;;;-141.84;79.67;19183.84;5046624;28;20229;-58
2023/04/18 05:02:36;;;;;;;14.27;12.77;;;7.80;99.90;;;-141.84;79.63;19157.44;5052570;28;20206;-58
2023/04/18 05:05:07;;;;;;;14.60;13.10;;;7.80;99.90;;;-141.84;79.86;19145.25;5052841;28;20579;-58
2023/04/18 05:07:35;;;;;;;13.63;12.20;;;7.80;99.90;;;-141.84;79.72;19143.22;5052564;28;20214;-59
2023/04/18 05:10:04;;;;;;;15.43;13.03;;;7.80;99.90;;;-141.84;80.39;19151.34;5052704;28;20212;-59
2023/04/18 05:12:33;;;;;;;13.80;12.30;;;7.80;99.90;;;-141.84;79.78;19149.31;5052227;28;20205;-59
2023/04/18 05:15:01;;;;;;;14.27;12.50;;;7.90;99.90;;;-141.84;79.84;19181.81;5052321;28;20209;-61
2023/04/18 05:17:29;;;;;;;14.87;11.80;;;7.90;99.90;;;-141.84;79.58;19185.88;5052694;28;20241;-58
2023/04/18 05:19:57;;;;;;;14.40;12.47;;;7.90;99.90;;;-141.84;78.93;19179.78;5052325;28;20244;-60
2023/04/18 05:22:27;;;;;;;13.77;11.97;;;8.00;99.90;;;-141.84;79.12;19167.59;5035591;28;20213;-57
2023/04/18 05:24:55;;;;;;;14.30;11.97;;;8.00;99.90;;;-141.84;78.80;19169.63;5032395;28;20206;-58
2023/04/18 05:27:23;;;;;;;13.80;12.20;;;8.10;99.90;;;-141.84;78.22;19177.75;5032570;28;20213;-60
2023/04/18 05:29:51;;;;;;;14.10;11.70;;;8.00;99.90;;;-141.84;79.10;19147.28;5043625;28;20603;-58
2023/04/18 05:32:20;;;;;;;13.80;11.70;;;7.90;99.90;;;-141.84;78.55;19177.75;5052439;28;20201;-59
2023/04/18 05:34:48;;;;;;;13.97;12.47;;;7.90;99.90;;;-141.84;78.76;19171.66;5051830;28;20202;-55
2023/04/18 05:37:17;;;;;;;14.53;12.30;;;7.90;99.90;;;-141.84;78.68;19171.66;5052120;28;20205;-55
2023/04/18 05:39:46;;;;;;;13.50;12.07;;;7.90;99.90;;;-141.84;78.75;19173.69;5052057;28;20232;-54
2023/04/18 05:42:14;;;;;;;16.27;12.60;;;7.90;99.90;;;-141.84;78.45;19157.44;5052068;28;20209;-56
2023/04/18 05:44:42;;;;;;;13.90;12.40;;;8.00;99.90;;;-141.84;78.57;19187.91;5050783;28;20224;-56
2023/04/18 05:47:10;;;;;;;14.03;12.63;;;7.90;99.90;;;-141.84;78.08;19179.78;5051826;28;20208;-57
2023/04/18 05:49:39;;;;;;;16.13;12.67;;;8.00;99.90;;;-141.84;77.91;19155.41;5039999;28;20194;-58
2023/04/18 05:52:07;;;;;;;14.93;12.43;;;8.00;99.90;;;-141.84;77.74;19179.78;5031591;28;20202;-56
2023/04/18 05:54:35;;;;;;;13.63;12.00;;;7.90;99.90;;;-141.84;77.76;19151.34;5031928;28;20250;-55
2023/04/18 05:57:04;;;;;;;14.57;12.67;;;8.00;99.90;;;-141.84;78.08;19167.59;5031875;28;20198;-56
2023/04/18 05:59:32;;;;;;;14.47;12.17;;;8.00;99.90;;;-141.84;77.86;19194.03;5040534;28;20578;-56
2023/04/18 06:02:01;;;;;;;13.93;12.43;;;8.00;99.90;;;-141.84;76.97;19212.31;5051560;28;20204;-57
2023/04/18 06:04:29;;;;;;;15.63;13.17;;;8.20;99.90;;;-141.84;76.93;19189.97;5051693;28;20205;-54
2023/04/18 06:06:57;;;;;;;14.10;12.60;;;8.20;99.90;;;-141.84;75.75;19254.97;5051683;28;20197;-57
2023/04/18 06:09:25;;;;;;;15.07;12.00;;;8.30;99.90;;;-141.84;74.54;19271.25;5045600;28;20198;-52
2023/04/18 06:11:53;;;;;;;14.50;12.43;;;8.50;99.90;;;-141.84;74.47;19289.53;5051737;28;20201;-56
2023/04/18 06:14:23;;;;;;;13.00;11.43;;;8.60;99.90;;;-141.84;74.11;19275.31;5051238;28;20669;-56
2023/04/18 06:16:51;;;;;;;13.30;11.83;;;8.60;99.90;;;-141.84;73.87;19293.59;5051352;28;20208;-54
2023/04/18 06:19:19;;;;;;;13.23;11.37;;;8.70;99.90;;;-141.84;74.15;19285.47;5051589;28;20212;-57
2023/04/18 06:21:49;;;;;;;15.03;11.57;;;8.70;99.90;;;-141.84;74.37;19246.84;5051410;28;20201;-56
2023/04/18 06:24:17;;;;;;;12.40;11.10;;;8.60;99.90;;;-141.84;74.02;19297.66;5051313;28;20212;-56
2023/04/18 06:26:46;;;;;;;13.23;11.43;;;8.70;99.90;;;-141.84;72.69;19326.09;5051499;28;20226;-57
2023/04/18 06:29:14;;;;;;;13.30;11.00;;;8.90;99.90;;;-141.84;71.93;19311.88;5039687;28;20198;-58
2023/04/18 06:31:47;;;;;;;13.63;10.90;;;9.10;99.90;;;-141.84;71.87;19334.22;5041249;28;20216;-58
2023/04/18 06:34:15;;;;;;;12.63;11.00;;;9.20;99.90;;;-141.84;72.06;19326.09;5048518;28;20321;-58
2023/04/18 06:36:43;;;;;;;11.83;10.50;;;9.10;99.90;;;-141.84;71.12;19354.56;5051466;28;20315;-58
2023/04/18 06:39:11;;;;;;;11.93;10.73;;;9.10;99.90;;;-141.84;71.13;19317.97;5051456;28;20208;-57
2023/04/18 06:41:39;;;;;;;11.03;9.70;;;9.00;99.90;;;-141.84;71.32;19305.78;5050601;28;20720;-56
2023/04/18 06:44:07;;;;;;;12.13;10.23;;;9.00;99.90;;;-141.84;71.32;19348.47;5051267;28;20229;-55
2023/04/18 06:46:36;;;;;;;11.90;9.80;;;9.00;99.90;;;-141.84;71.35;19356.59;5049785;28;20210;-56
2023/04/18 06:49:05;;;;;;;11.17;9.73;;;9.10;99.90;;;-141.84;71.09;19413.47;5043572;28;20198;-55
2023/04/18 06:51:33;;;;;;;10.77;9.60;;;9.30;99.90;;;-141.84;70.53;19374.88;5030266;28;20201;-56
2023/04/18 06:54:02;;;;;;;12.37;10.40;;;9.30;99.90;;;-141.84;69.16;19429.75;5031280;28;20206;-58
2023/04/18 06:56:30;;;;;;;12.03;9.90;;;9.40;99.90;;;-141.84;69.00;19429.75;5034380;28;20209;-56
2023/04/18 06:58:58;;;;;;;10.97;9.87;;;9.60;99.90;;;-141.84;68.90;19395.19;5038943;28;20665;-54
2023/04/18 07:01:26;;;;;;;11.70;9.77;;;9.60;99.90;;;-141.84;69.13;19387.06;5054641;28;20225;-56
2023/04/18 07:03:54;;;;;;;11.50;10.03;;;9.70;99.90;;;-141.84;68.24;19429.75;5054927;28;20228;-55
2023/04/18 07:06:25;;;;;;;10.37;9.27;;;9.60;99.90;;;-141.84;68.42;19423.66;5054888;28;20293;-58
2023/04/18 07:08:58;;;;;;;11.70;9.50;;;9.50;99.90;;;-141.84;68.42;19443.97;5054890;28;20185;-53
2023/04/18 07:11:27;;;;;;;11.70;10.50;;;9.60;99.90;;;-141.84;67.87;19437.88;5054836;28;20182;-56
2023/04/18 07:13:55;;;;;;;11.80;10.13;;;9.60;99.90;;;-141.84;67.86;19427.72;5054489;28;20201;-58
2023/04/18 07:16:23;;;;;;;10.57;9.47;;;9.70;99.90;;;-141.84;68.04;19452.09;5054669;28;20202;-55
2023/04/18 07:18:51;;;;;;;10.97;9.70;;;9.70;99.90;;;-141.84;68.15;19450.06;5054773;28;20649;-57
2023/04/18 07:21:19;;;;;;;11.20;9.57;;;9.60;99.90;;;-141.84;68.42;19421.63;5047222;28;20226;-67
2023/04/18 07:23:49;;;;;;;12.30;10.07;;;9.50;99.90;;;-141.84;67.94;19435.84;5034836;28;20209;-67
2023/04/18 07:26:17;;;;;;;11.40;10.00;;;9.40;99.90;;;-141.84;69.14;19383.00;5035059;28;20210;-56
2023/04/18 07:28:46;;;;;;;11.00;9.77;;;9.20;99.90;;;-141.84;69.69;19383.00;5037239;28;20206;-54
2023/04/18 07:31:15;;;;;;;11.07;9.13;;;9.10;99.90;;;-141.84;69.95;19346.44;5054113;28;20700;-57
2023/04/18 07:33:43;;;;;;;12.73;10.57;;;9.00;99.90;;;-141.84;69.73;19370.81;5054645;28;20259;-57
2023/04/18 07:36:12;;;;;;;11.90;10.03;;;9.00;99.90;;;-141.84;68.98;19415.50;5054399;28;20197;-58
2023/04/18 07:38:40;;;;;;;12.30;10.10;;;9.20;99.90;;;-141.84;69.02;19427.72;5054352;28;20213;-56
2023/04/18 07:41:10;;;;;;;11.97;9.10;;;9.30;99.90;;;-141.84;69.40;19425.69;5054242;28;20230;-57
2023/04/18 07:43:39;;;;;;;11.40;10.00;;;9.40;99.90;;;-141.84;68.19;19446.00;5053718;28;20717;-59
2023/04/18 07:46:07;;;;;;;12.00;10.23;;;9.60;99.90;;;-141.84;68.89;19435.84;5054367;28;20573;-56
2023/04/18 07:48:36;;;;;;;11.90;9.60;;;9.50;99.90;;;-141.84;68.93;19419.59;5050573;28;20663;-56
2023/04/18 07:51:04;;;;;;;11.57;9.93;;;9.50;99.90;;;-141.84;69.19;19421.63;5034277;28;20288;-55
2023/04/18 07:53:32;;;;;;;10.90;9.47;;;9.50;99.90;;;-141.84;69.57;19393.16;5034274;28;20213;-55
2023/04/18 07:56:00;;;;;;;11.07;9.87;;;9.50;99.90;;;-141.84;68.97;19474.44;5033779;28;20202;-57
2023/04/18 07:58:30;;;;;;;11.60;9.97;;;9.60;99.90;;;-141.84;67.78;19462.25;5034104;28;20202;-56
2023/04/18 08:00:58;;;;;;;14.57;10.53;;;9.70;99.90;;;-141.84;67.07;19521.19;5053677;28;20221;-56
2023/04/18 08:03:28;;;;;;;11.17;9.93;;;9.80;99.90;;;-141.84;67.21;19492.75;5053906;28;20202;-54
2023/04/18 08:05:56;;;;;;;11.23;9.83;;;9.90;99.90;;;-141.84;66.69;19509.00;5053500;28;20638;-57
2023/04/18 08:08:24;;;;;;;10.40;8.67;;;9.90;99.90;;;-141.84;65.41;19537.44;5053504;28;20217;-57
2023/04/18 08:10:53;;;;;;;10.77;9.67;;;10.20;99.90;;;-141.84;64.51;19561.84;5053710;28;20198;-57
2023/04/18 08:13:21;;;;;;;11.73;9.63;;;10.40;99.90;;;-141.84;63.60;19653.28;5053642;28;20205;-57
2023/04/18 08:15:51;;;;;;;11.10;9.20;;;10.60;99.90;;;-141.84;63.81;19651.25;5053131;28;20214;-57
2023/04/18 08:18:19;;;;;;;10.90;9.30;;;10.60;99.90;;;-141.84;63.14;19630.94;5053334;28;20220;-57
2023/04/18 08:20:47;;;;;;;10.40;8.83;;;10.70;99.90;;;-141.84;62.91;19637.03;5049901;28;20258;-57
2023/04/18 08:23:16;;;;;;;11.50;9.10;;;10.90;99.90;;;-141.84;63.29;19647.19;5033453;28;20198;-56
2023/04/18 08:25:44;;;;;;;10.47;8.47;;;10.90;99.90;;;-141.84;63.40;19618.75;5033642;28;20206;-56
2023/04/18 08:28:13;;;;;;;9.93;8.63;;;10.90;99.90;;;-141.84;63.00;19626.88;5033609;28;20202;-59
2023/04/18 08:30:42;;;;;;;11.23;8.93;;;10.80;99.90;;;-141.84;62.89;19626.88;5051698;28;20769;-57
2023/04/18 08:33:11;;;;;;;10.57;9.20;;;10.70;99.90;;;-141.84;62.91;19659.38;5053181;28;20554;-58
2023/04/18 08:35:39;;;;;;;10.23;9.07;;;10.90;99.90;;;-141.84;62.37;19665.47;5053230;28;20205;-56
2023/04/18 08:38:08;;;;;;;10.40;9.27;;;11.00;99.90;;;-141.84;62.41;19647.19;5052844;28;20590;-57
2023/04/18 08:40:37;;;;;;;12.20;9.40;;;11.00;99.90;;;-141.84;62.77;19681.75;5052639;28;20614;-56
2023/04/18 08:43:08;;;;;;;10.67;9.10;;;11.00;99.90;;;-141.84;63.07;19655.31;5052319;28;20233;-57
2023/04/18 08:45:37;;;;;;;10.03;8.63;;;10.80;99.90;;;-141.84;63.63;19630.94;5052770;28;20477;-57
2023/04/18 08:48:06;;;;;;;9.93;8.60;;;10.80;99.90;;;-141.84;63.91;19639.06;5052984;28;20204;-57
2023/04/18 08:50:36;;;;;;;10.33;9.30;;;10.80;99.90;;;-141.84;63.85;19659.38;5033517;28;20264;-56
2023/04/18 08:53:04;;;;;;;11.60;9.90;;;10.80;99.90;;;-141.84;64.64;19574.03;5032905;28;20678;-56
2023/04/18 08:55:33;;;;;;;10.63;9.53;;;10.60;99.90;;;-141.84;65.68;19561.84;5032859;28;20674;-56
2023/04/18 08:58:01;;;;;;;10.63;9.23;;;10.50;99.90;;;-141.84;65.70;19567.94;5032676;28;20696;-59
2023/04/18 09:00:29;;;;;;;11.77;9.73;;;10.50;99.90;;;-141.84;65.09;19610.59;5049647;28;20231;-66
2023/04/18 09:02:58;;;;;;;11.50;10.23;;;10.70;99.90;;;-141.84;64.32;19628.91;5052792;28;20225;-67
2023/04/18 09:05:27;;;;;;;10.70;9.20;;;10.70;99.90;;;-141.84;64.12;19645.16;5052867;28;20233;-67
2023/04/18 09:07:56;;;;;;;10.13;9.13;;;10.80;99.90;;;-141.84;63.81;19653.28;5052487;28;20632;-67
2023/04/18 09:10:28;;;;;;;10.53;9.40;;;10.90;99.90;;;-141.84;63.86;19673.59;5052603;28;20205;-67
2023/04/18 09:12:57;;;;;;;11.73;10.10;;;11.00;99.90;;;-141.84;63.38;19700.03;5052604;28;20727;-67
2023/04/18 09:15:28;;;;;;;10.80;9.67;;;11.00;99.90;;;-141.84;63.67;19663.44;5052669;28;20225;-67
2023/04/18 09:17:58;;;;;;;12.67;10.20;;;11.10;99.90;;;-141.84;63.62;19671.56;5052630;28;20264;-68
2023/04/18 09:20:33;;;;;;;11.20;9.73;;;11.10;99.90;;;-141.84;63.31;19677.66;5051940;28;20190;-68
2023/04/18 09:23:09;;;;;;;11.37;9.93;;;11.20;99.90;;;-141.84;63.59;19720.34;5032499;28;20206;-68
2023/04/18 09:25:45;;;;;;;12.85;10.35;;;11.40;99.90;;;-141.84;62.55;19734.56;5032274;28;20563;-67
2023/04/18 09:28:25;;;;;;;11.30;9.97;;;11.40;99.90;;;-141.84;61.10;19752.88;5032371;28;20229;-67
2023/04/18 09:30:55;;;;;;;11.67;10.07;;;11.70;99.90;;;-141.84;62.19;19761.00;5032357;28;20190;-68
2023/04/18 09:33:31;;;;;;;11.53;10.23;;;11.70;99.90;;;-141.84;62.66;19706.13;5032377;28;20198;-66
2023/04/18 09:36:18;;;;;;;10.57;9.43;;;11.50;99.90;;;-141.84;62.98;19712.22;5032264;28;20277;-68
2023/04/18 09:38:50;;;;;;;12.17;10.10;;;11.40;99.90;;;-141.84;62.99;19732.53;5032111;28;20190;-68
2023/04/18 09:41:21;;;;;;;12.53;10.17;;;11.40;99.90;;;-141.84;63.32;19661.41;5032130;28;20189;-67
2023/04/18 09:43:51;;;;;;;11.77;10.50;;;11.30;99.90;;;-141.84;64.20;19661.41;5031567;28;20241;-67
2023/04/18 09:46:21;;;;;;;11.47;10.27;;;11.10;99.90;;;-141.84;64.67;19661.41;5032085;28;20213;-67
2023/04/18 09:48:50;;;;;;;11.40;9.93;;;11.00;99.90;;;-141.84;65.13;19632.97;5036905;28;20209;-67
2023/04/18 09:51:19;;;;;;;12.13;10.40;;;10.90;99.90;;;-141.84;64.01;19661.41;5051813;28;20631;-65
2023/04/18 09:53:49;;;;;;;11.33;10.13;;;11.10;99.90;;;-141.84;63.66;19714.25;5051859;28;20216;-67
2023/04/18 09:56:30;;;;;;;11.47;10.27;;;11.20;99.90;;;-141.84;62.39;19742.72;5051820;28;20186;-67
2023/04/18 09:59:08;;;;;;;11.53;10.33;;;11.40;99.90;;;-141.84;62.06;19750.84;5047307;28;20225;-67
2023/04/18 10:01:37;;;;;;;12.97;10.40;;;11.50;99.90;;;-141.84;61.65;19793.50;5040565;28;20206;-66
2023/04/18 10:04:06;;;;;;;11.10;9.73;;;11.70;99.90;;;-141.84;61.83;19767.09;5031977;28;20230;-67
2023/04/18 10:06:38;;;;;;;11.87;9.73;;;11.90;99.90;;;-141.84;61.67;19817.91;5031933;28;20238;-66
2023/04/18 10:09:09;;;;;;;9.93;8.93;;;12.00;99.90;;;-141.84;60.76;19866.69;5031887;28;20297;-67